Time;durP1;ratioP1;P1;durP2;ratioP2;P2;SDS_P1;SDS_P2;PMS_P1;PMS_P2;Temp;Humidity;BMP_temperature;BMP_pressure;BME280_temperature;BME280_humidity;BME280_pressure;Samples;Min_cycle;Max_cycle;Signal;HPM_P1;HPM_P2
2021/04/28 00:02:25;;;;;;;13.53;8.30;;;7.80;99.90;;;;;;5011688;28;20393;-49
2021/04/28 00:04:51;;;;;;;15.77;8.15;;;7.70;99.90;;;;;;5013037;28;20392;-49
2021/04/28 00:07:17;;;;;;;20.17;8.77;;;7.60;99.90;;;;;;5011594;28;20397;-57
2021/04/28 00:09:43;;;;;;;14.18;8.52;;;7.50;99.90;;;;;;5010570;28;20433;-50
2021/04/28 00:12:09;;;;;;;13.20;7.60;;;7.50;99.90;;;;;;5012354;28;20476;-50
2021/04/28 00:14:35;;;;;;;15.20;8.45;;;7.50;99.90;;;;;;5011553;28;20400;-50
2021/04/28 00:17:01;;;;;;;14.13;8.03;;;7.60;99.90;;;;;;5012011;28;20447;-50
2021/04/28 00:19:28;;;;;;;19.05;8.52;;;7.60;99.90;;;;;;5011732;28;20420;-50
2021/04/28 00:21:54;;;;;;;15.55;9.40;;;7.50;99.90;;;;;;5012008;28;20380;-50
2021/04/28 00:24:19;;;;;;;16.40;8.80;;;7.40;99.90;;;;;;5011739;28;20377;-59
2021/04/28 00:26:46;;;;;;;14.90;9.17;;;7.40;99.90;;;;;;5011892;28;20381;-50
2021/04/28 00:29:11;;;;;;;12.55;8.13;;;7.40;99.90;;;;;;5011982;28;20405;-50
2021/04/28 00:31:37;;;;;;;14.67;8.17;;;7.40;99.90;;;;;;5011205;28;20954;-51
2021/04/28 00:34:03;;;;;;;15.48;8.52;;;7.40;99.90;;;;;;5012159;28;20898;-50
2021/04/28 00:36:28;;;;;;;14.50;7.70;;;7.50;99.90;;;;;;5011235;28;20480;-50
2021/04/28 00:38:54;;;;;;;16.20;7.87;;;7.40;99.90;;;;;;4994403;28;20404;-54
2021/04/28 00:41:20;;;;;;;13.32;7.20;;;7.40;99.90;;;;;;5011163;28;20401;-51
2021/04/28 00:43:46;;;;;;;12.93;7.20;;;7.30;99.90;;;;;;5011970;28;20835;-50
2021/04/28 00:46:13;;;;;;;14.38;7.40;;;7.30;99.90;;;;;;5011870;28;20377;-50
2021/04/28 00:48:39;;;;;;;14.48;7.32;;;7.60;99.90;;;;;;5011406;28;20816;-49
2021/04/28 00:51:05;;;;;;;12.77;7.10;;;7.40;99.90;;;;;;5011671;28;20389;-50
2021/04/28 00:53:31;;;;;;;12.75;7.15;;;7.60;99.90;;;;;;5010077;28;20401;-50
2021/04/28 00:55:58;;;;;;;13.15;8.05;;;7.70;99.90;;;;;;5011669;28;20384;-50
2021/04/28 00:58:25;;;;;;;14.95;7.97;;;7.70;99.90;;;;;;5010955;28;20497;-51
2021/04/28 01:00:51;;;;;;;13.40;7.93;;;7.70;99.90;;;;;;5011648;28;20377;-50
2021/04/28 01:03:22;;;;;;;11.40;7.20;;;7.70;99.90;;;;;;5011133;28;20863;-58
2021/04/28 01:05:52;;;;;;;13.82;8.10;;;7.70;99.90;;;;;;5011183;28;20868;-50
2021/04/28 01:08:19;;;;;;;14.50;7.78;;;7.80;99.90;;;;;;5011071;28;20919;-58
2021/04/28 01:10:46;;;;;;;14.77;8.00;;;7.70;99.90;;;;;;5010659;28;20436;-50
2021/04/28 01:13:11;;;;;;;16.40;7.80;;;7.60;99.90;;;;;;5011175;28;20535;-50
2021/04/28 01:15:38;;;;;;;12.80;7.80;;;7.60;99.90;;;;;;5010537;28;21157;-51
2021/04/28 01:18:04;;;;;;;13.50;7.93;;;7.50;99.90;;;;;;5011410;28;20385;-51
2021/04/28 01:20:35;;;;;;;14.38;8.73;;;7.40;99.90;;;;;;5010293;28;20424;-50
2021/04/28 01:23:00;;;;;;;12.40;7.53;;;7.30;99.90;;;;;;5011029;28;20416;-50
2021/04/28 01:25:26;;;;;;;17.10;7.80;;;7.20;99.90;;;;;;5010334;28;20946;-51
2021/04/28 01:28:09;;;;;;;14.07;7.90;;;7.20;99.90;;;;;;5010989;28;20409;-50
2021/04/28 01:30:38;;;;;;;15.90;7.70;;;7.30;99.90;;;;;;5009949;28;21069;-51
2021/04/28 01:33:05;;;;;;;14.70;8.00;;;7.40;99.90;;;;;;5010967;28;20918;-50
2021/04/28 01:35:32;;;;;;;12.40;7.97;;;7.40;99.90;;;;;;4992868;28;20479;-51
2021/04/28 01:37:59;;;;;;;17.02;7.90;;;7.50;99.90;;;;;;5010482;28;20468;-50
2021/04/28 01:40:26;;;;;;;14.30;7.70;;;7.40;99.90;;;;;;5009609;28;20452;-51
2021/04/28 01:42:53;;;;;;;13.75;7.88;;;7.40;99.90;;;;;;4993205;28;20472;-51
2021/04/28 01:45:20;;;;;;;15.88;7.88;;;7.50;99.90;;;;;;5010121;28;20387;-59
2021/04/28 01:47:46;;;;;;;20.60;8.68;;;7.50;99.90;;;;;;5010677;28;20392;-53
2021/04/28 01:50:14;;;;;;;15.80;7.80;;;7.50;99.90;;;;;;5010846;28;20463;-50
2021/04/28 01:52:42;;;;;;;13.40;7.87;;;7.40;99.90;;;;;;5009735;28;20439;-51
2021/04/28 01:55:08;;;;;;;14.03;8.60;;;7.40;99.90;;;;;;5010474;28;20576;-50
2021/04/28 01:57:35;;;;;;;17.40;8.20;;;7.40;99.90;;;;;;5009072;28;20431;-52
2021/04/28 02:00:01;;;;;;;13.18;8.20;;;7.40;99.90;;;;;;5010138;28;20405;-50
2021/04/28 02:02:27;;;;;;;14.45;8.07;;;7.40;99.90;;;;;;5009465;28;20907;-51
2021/04/28 02:04:52;;;;;;;15.18;8.40;;;7.30;99.90;;;;;;5010255;28;20400;-56
2021/04/28 02:07:19;;;;;;;12.93;8.15;;;7.30;99.90;;;;;;5010253;28;20384;-50
2021/04/28 02:09:45;;;;;;;16.55;8.73;;;7.10;99.90;;;;;;5009085;28;20515;-50
2021/04/28 02:12:12;;;;;;;13.25;7.97;;;7.10;99.90;;;;;;5010464;28;20468;-56
2021/04/28 02:14:40;;;;;;;14.02;8.15;;;7.00;99.90;;;;;;5009890;28;20411;-50
2021/04/28 02:17:06;;;;;;;12.17;7.90;;;6.90;99.90;;;;;;5009503;28;20472;-50
2021/04/28 02:19:32;;;;;;;15.38;9.20;;;6.80;99.90;;;;;;5009305;28;20947;-54
2021/04/28 02:21:58;;;;;;;16.40;9.32;;;6.80;99.90;;;;;;5009773;28;20377;-51
2021/04/28 02:24:23;;;;;;;15.20;9.07;;;6.70;99.90;;;;;;5009372;28;20397;-53
2021/04/28 02:26:56;;;;;;;13.82;8.38;;;6.60;99.90;;;;;;5010082;28;20412;-56
2021/04/28 02:29:22;;;;;;;21.30;9.27;;;6.60;99.90;;;;;;5009510;28;20413;-59
2021/04/28 02:31:47;;;;;;;14.10;8.10;;;6.60;99.90;;;;;;5009248;28;20744;-50
2021/04/28 02:34:13;;;;;;;14.37;8.77;;;6.60;99.90;;;;;;5009584;28;20385;-50
2021/04/28 02:36:43;;;;;;;14.20;7.80;;;6.60;99.90;;;;;;5008653;28;20456;-51
2021/04/28 02:39:13;;;;;;;13.85;7.88;;;6.60;99.90;;;;;;5009858;28;20377;-50
2021/04/28 02:41:41;;;;;;;14.90;8.55;;;6.70;99.90;;;;;;5008931;28;20828;-50
2021/04/28 02:44:11;;;;;;;14.75;8.30;;;6.80;99.90;;;;;;5009948;28;20389;-50
2021/04/28 02:46:38;;;;;;;12.80;8.23;;;8.00;99.90;;;;;;5009213;28;20388;-50
2021/04/28 02:49:04;;;;;;;15.18;8.85;;;6.60;99.90;;;;;;4992211;28;20495;-50
2021/04/28 02:51:32;;;;;;;13.23;8.55;;;6.40;99.90;;;;;;5009124;28;20372;-52
2021/04/28 02:54:00;;;;;;;14.13;9.40;;;6.40;99.90;;;;;;5009881;28;20369;-50
2021/04/28 02:56:29;;;;;;;17.85;9.52;;;6.40;99.90;;;;;;5009037;28;20412;-50
2021/04/28 02:58:56;;;;;;;14.82;9.43;;;6.40;99.90;;;;;;5009378;28;20385;-50
2021/04/28 03:01:22;;;;;;;17.23;10.00;;;6.20;99.90;;;;;;5009030;28;20389;-58
2021/04/28 03:03:49;;;;;;;13.87;9.00;;;6.20;99.90;;;;;;5009319;28;20451;-50
2021/04/28 03:06:16;;;;;;;16.65;9.30;;;6.20;99.90;;;;;;5009623;28;20467;-50
2021/04/28 03:08:43;;;;;;;14.75;9.02;;;6.30;99.90;;;;;;5009073;28;20380;-50
2021/04/28 03:11:10;;;;;;;18.15;9.65;;;6.40;99.90;;;;;;5009587;28;20452;-50
2021/04/28 03:13:36;;;;;;;19.77;10.20;;;6.70;99.90;;;;;;5009087;28;20439;-51
2021/04/28 03:16:02;;;;;;;14.40;8.57;;;6.60;99.90;;;;;;5009410;28;20872;-50
2021/04/28 03:18:28;;;;;;;20.80;9.70;;;6.70;99.90;;;;;;5009100;28;20728;-52
2021/04/28 03:20:54;;;;;;;17.27;8.85;;;6.80;99.90;;;;;;5009116;28;20704;-50
2021/04/28 03:23:20;;;;;;;14.65;9.05;;;6.90;99.90;;;;;;5009636;28;20377;-50
2021/04/28 03:25:46;;;;;;;14.15;9.00;;;6.80;99.90;;;;;;5008249;28;20381;-51
2021/04/28 03:28:12;;;;;;;16.17;8.60;;;6.90;99.90;;;;;;5009403;28;20388;-50
2021/04/28 03:30:38;;;;;;;17.30;9.15;;;6.80;99.90;;;;;;5008201;28;20946;-50
2021/04/28 03:33:04;;;;;;;14.95;9.25;;;6.90;99.90;;;;;;5008889;28;20752;-50
2021/04/28 03:35:29;;;;;;;17.70;9.30;;;6.90;99.90;;;;;;5007926;28;20400;-50
2021/04/28 03:37:55;;;;;;;14.57;9.00;;;6.90;99.90;;;;;;5009532;28;20381;-50
2021/04/28 03:40:21;;;;;;;16.02;9.48;;;6.90;99.90;;;;;;5009194;28;20440;-55
2021/04/28 03:42:46;;;;;;;14.97;8.90;;;6.90;99.90;;;;;;5005834;28;20938;-51
2021/04/28 03:45:14;;;;;;;14.50;8.70;;;6.80;99.90;;;;;;5008592;28;20784;-50
2021/04/28 03:47:39;;;;;;;16.35;8.90;;;6.90;99.90;;;;;;4991526;28;20430;-50
2021/04/28 03:50:06;;;;;;;15.05;8.80;;;6.90;99.90;;;;;;5012068;28;20938;-50
2021/04/28 03:52:32;;;;;;;15.00;8.80;;;6.90;99.90;;;;;;5011085;28;20381;-50
2021/04/28 03:54:58;;;;;;;16.23;9.00;;;6.90;99.90;;;;;;5011721;28;20483;-50
2021/04/28 03:57:24;;;;;;;16.33;8.75;;;6.90;99.90;;;;;;5009009;28;20431;-58
2021/04/28 03:59:50;;;;;;;15.45;9.10;;;6.90;99.90;;;;;;5012359;28;20387;-51
2021/04/28 04:02:15;;;;;;;16.08;9.77;;;6.80;99.90;;;;;;5012009;28;20373;-50
2021/04/28 04:04:41;;;;;;;15.33;9.23;;;6.60;99.90;;;;;;5011426;28;20488;-50
2021/04/28 04:07:07;;;;;;;18.98;9.60;;;7.00;99.90;;;;;;5011801;28;20880;-50
2021/04/28 04:09:33;;;;;;;16.40;9.48;;;6.40;99.90;;;;;;5010999;28;20436;-50
2021/04/28 04:11:59;;;;;;;16.33;9.57;;;6.50;99.90;;;;;;5012335;28;20451;-53
2021/04/28 04:14:24;;;;;;;15.60;9.23;;;6.40;99.90;;;;;;5008847;28;20388;-58
2021/04/28 04:16:50;;;;;;;15.05;9.70;;;6.30;99.90;;;;;;5011812;28;20739;-51
2021/04/28 04:19:16;;;;;;;17.00;10.10;;;6.10;99.90;;;;;;5011748;28;20864;-50
2021/04/28 04:21:42;;;;;;;17.80;10.40;;;6.00;99.90;;;;;;5011067;28;20399;-50
2021/04/28 04:24:08;;;;;;;15.60;9.57;;;6.10;99.90;;;;;;5012179;28;20432;-50
2021/04/28 04:26:33;;;;;;;16.13;10.02;;;6.20;99.90;;;;;;5011429;28;20383;-50
2021/04/28 04:29:00;;;;;;;17.50;10.05;;;6.30;99.90;;;;;;5011884;28;20791;-51
2021/04/28 04:31:26;;;;;;;19.25;10.60;;;6.40;99.90;;;;;;5011144;28;20791;-58
2021/04/28 04:33:51;;;;;;;17.92;10.05;;;6.60;99.90;;;;;;5011937;28;20388;-50
2021/04/28 04:36:17;;;;;;;21.10;10.70;;;6.70;99.90;;;;;;5011758;28;20883;-50
2021/04/28 04:38:43;;;;;;;17.70;10.13;;;6.80;99.90;;;;;;5008731;28;20389;-50
2021/04/28 04:41:08;;;;;;;21.53;11.03;;;7.00;99.90;;;;;;5012077;28;20389;-50
2021/04/28 04:43:34;;;;;;;16.83;10.68;;;7.00;99.90;;;;;;5010706;28;20717;-50
2021/04/28 04:45:59;;;;;;;18.00;10.63;;;7.20;99.90;;;;;;5010176;28;20381;-52
2021/04/28 04:48:25;;;;;;;21.63;11.10;;;7.40;99.90;;;;;;5010530;28;20429;-58
2021/04/28 04:50:51;;;;;;;17.80;10.48;;;7.60;99.90;;;;;;4991888;28;20875;-50
2021/04/28 04:53:17;;;;;;;16.70;10.40;;;8.00;99.90;;;;;;5010296;28;21181;-50
2021/04/28 04:55:42;;;;;;;15.55;9.88;;;8.60;99.90;;;;;;5010067;28;20455;-51
2021/04/28 04:58:08;;;;;;;19.83;9.80;;;9.40;99.90;;;;;;5011594;28;20381;-50
2021/04/28 05:00:34;;;;;;;15.77;9.68;;;10.10;99.90;;;;;;5010336;28;20393;-53
2021/04/28 05:03:00;;;;;;;15.65;9.88;;;10.90;99.70;;;;;;5006809;28;20463;-50
2021/04/28 05:05:26;;;;;;;19.95;10.80;;;11.60;97.80;;;;;;5003470;28;20900;-51
2021/04/28 05:07:53;;;;;;;14.90;9.97;;;12.10;95.70;;;;;;5010793;28;20443;-52
2021/04/28 05:10:18;;;;;;;19.03;11.20;;;12.60;93.90;;;;;;5010684;28;20432;-52
2021/04/28 05:12:46;;;;;;;20.88;11.15;;;12.80;92.70;;;;;;5009505;28;20630;-52
2021/04/28 05:15:16;;;;;;;21.73;11.80;;;12.90;92.00;;;;;;5010481;28;20399;-53
2021/04/28 05:17:45;;;;;;;18.52;9.98;;;13.30;91.50;;;;;;5010008;28;20472;-54
2021/04/28 05:20:12;;;;;;;16.77;10.45;;;13.50;90.80;;;;;;5010415;28;20732;-54
2021/04/28 05:22:37;;;;;;;18.80;11.18;;;14.30;89.20;;;;;;5007482;28;20393;-52
2021/04/28 05:25:07;;;;;;;18.23;10.40;;;14.80;85.10;;;;;;5010843;28;20799;-51
2021/04/28 05:27:33;;;;;;;18.20;10.70;;;15.40;80.00;;;;;;5005971;28;20405;-51
2021/04/28 05:29:59;;;;;;;16.00;9.38;;;16.00;76.70;;;;;;5010503;28;20499;-51
2021/04/28 05:32:25;;;;;;;17.70;10.40;;;16.50;72.10;;;;;;5010131;28;20400;-60
2021/04/28 05:34:53;;;;;;;14.50;10.40;;;18.60;70.00;;;;;;5010240;28;20681;-52
2021/04/28 05:37:19;;;;;;;18.80;10.40;;;18.00;65.60;;;;;;5010020;28;20764;-49
2021/04/28 05:39:46;;;;;;;16.02;10.05;;;18.60;61.40;;;;;;5009410;28;20396;-52
2021/04/28 05:42:12;;;;;;;18.77;10.17;;;19.10;58.90;;;;;;5011203;28;20389;-51
2021/04/28 05:44:38;;;;;;;17.23;9.90;;;19.30;57.60;;;;;;5009578;28;20865;-51
2021/04/28 05:47:04;;;;;;;16.80;10.20;;;19.50;56.40;;;;;;4992280;28;20753;-52
2021/04/28 05:49:30;;;;;;;17.83;11.20;;;19.90;56.30;;;;;;5008758;28;20453;-51
2021/04/28 05:51:55;;;;;;;19.67;10.20;;;20.50;54.90;;;;;;5007193;28;20411;-52
2021/04/28 05:54:22;;;;;;;19.00;10.50;;;20.90;52.60;;;;;;5004438;28;20942;-53
2021/04/28 05:56:47;;;;;;;16.33;10.80;;;20.70;51.90;;;;;;5009279;28;20381;-52
2021/04/28 05:59:13;;;;;;;19.00;10.37;;;20.90;51.40;;;;;;5009411;28;20736;-52
2021/04/28 06:01:38;;;;;;;20.30;11.40;;;21.00;50.40;;;;;;5009515;28;20789;-51
2021/04/28 06:04:05;;;;;;;16.10;11.30;;;21.30;50.50;;;;;;5009605;28;20376;-51
2021/04/28 06:06:30;;;;;;;20.38;11.88;;;21.90;50.60;;;;;;5008760;28;20416;-52
2021/04/28 06:08:56;;;;;;;19.27;11.07;;;22.50;48.70;;;;;;5009020;28;20409;-52
2021/04/28 06:11:22;;;;;;;17.17;10.53;;;21.50;49.40;;;;;;5009371;28;20416;-52
2021/04/28 06:13:48;;;;;;;17.90;11.20;;;21.30;49.40;;;;;;4991601;28;20771;-52
2021/04/28 06:16:15;;;;;;;19.73;12.07;;;21.30;48.80;;;;;;5010270;28;20503;-52
2021/04/28 06:18:41;;;;;;;20.50;11.97;;;21.60;49.00;;;;;;5008875;28;20418;-52
2021/04/28 06:21:08;;;;;;;18.17;11.10;;;21.90;48.80;;;;;;5009802;28;20422;-53
2021/04/28 06:23:35;;;;;;;16.90;11.65;;;22.50;47.90;;;;;;5009004;28;20467;-52
2021/04/28 06:26:00;;;;;;;17.52;10.57;;;23.20;47.20;;;;;;5009445;28;20433;-55
2021/04/28 06:28:26;;;;;;;18.83;11.82;;;23.80;45.90;;;;;;5008709;28;20380;-61
2021/04/28 06:30:52;;;;;;;19.17;12.40;;;23.80;46.00;;;;;;5009618;28;20443;-52
2021/04/28 06:33:18;;;;;;;19.25;11.50;;;24.40;44.50;;;;;;5009364;28;20451;-53
2021/04/28 06:35:44;;;;;;;17.83;11.30;;;25.00;43.80;;;;;;5008533;28;20457;-52
2021/04/28 06:38:09;;;;;;;14.90;11.80;;;24.60;43.00;;;;;;5009491;28;20392;-51
2021/04/28 06:40:36;;;;;;;18.27;12.00;;;23.50;44.30;;;;;;5008445;28;20395;-52
2021/04/28 06:43:04;;;;;;;16.90;12.00;;;23.40;45.00;;;;;;5009667;28;20396;-52
2021/04/28 06:45:30;;;;;;;19.05;12.23;;;23.20;45.00;;;;;;5008450;28;20926;-52
2021/04/28 06:47:56;;;;;;;19.55;12.75;;;22.20;45.60;;;;;;5009767;28;20381;-52
2021/04/28 06:50:22;;;;;;;17.60;12.40;;;22.30;46.30;;;;;;4991103;28;20424;-52
2021/04/28 06:52:47;;;;;;;18.25;12.90;;;23.00;45.70;;;;;;5008882;28;20393;-53
2021/04/28 06:55:13;;;;;;;25.57;13.03;;;24.20;44.50;;;;;;5008818;28;20440;-52
2021/04/28 06:57:39;;;;;;;21.80;13.20;;;24.40;44.20;;;;;;5008517;28;20389;-52
2021/04/28 07:00:06;;;;;;;18.00;13.63;;;24.40;44.00;;;;;;5009302;28;20387;-50
2021/04/28 07:02:31;;;;;;;20.63;13.10;;;24.50;43.50;;;;;;5008752;28;20381;-52
2021/04/28 07:04:57;;;;;;;20.50;13.57;;;24.40;43.00;;;;;;5009008;28;20824;-52
2021/04/28 07:07:23;;;;;;;19.73;13.35;;;24.30;42.40;;;;;;5009540;28;20452;-52
2021/04/28 07:09:49;;;;;;;19.20;12.52;;;23.90;42.70;;;;;;5007756;28;20479;-54
2021/04/28 07:12:14;;;;;;;18.63;12.77;;;23.90;42.60;;;;;;5009565;28;20381;-51
2021/04/28 07:14:40;;;;;;;20.13;13.05;;;24.10;43.20;;;;;;5008392;28;20403;-52
2021/04/28 07:17:08;;;;;;;19.17;12.63;;;24.30;42.50;;;;;;5009578;28;20389;-52
2021/04/28 07:19:34;;;;;;;19.80;12.82;;;24.50;42.60;;;;;;5010970;28;20385;-51
2021/04/28 07:22:00;;;;;;;20.17;12.63;;;24.20;42.70;;;;;;5012969;28;20381;-53
2021/04/28 07:24:25;;;;;;;17.23;12.50;;;24.60;42.80;;;;;;5012679;28;20738;-61
2021/04/28 07:26:53;;;;;;;23.40;13.53;;;25.20;42.00;;;;;;5012855;28;20369;-52
2021/04/28 07:29:19;;;;;;;17.83;12.48;;;26.20;40.90;;;;;;5012847;28;20413;-52
2021/04/28 07:31:45;;;;;;;17.90;12.20;;;26.00;40.80;;;;;;5012378;28;20458;-52
2021/04/28 07:34:11;;;;;;;19.20;12.90;;;26.30;40.20;;;;;;5012999;28;20384;-52
2021/04/28 07:36:37;;;;;;;18.15;11.63;;;26.20;39.70;;;;;;5011686;28;20381;-54
2021/04/28 07:39:05;;;;;;;18.20;12.40;;;25.90;39.80;;;;;;5012461;28;20401;-52
2021/04/28 07:41:32;;;;;;;20.90;12.10;;;25.40;39.90;;;;;;5011557;28;20401;-52
2021/04/28 07:43:58;;;;;;;17.20;11.40;;;25.80;39.80;;;;;;5012378;28;20820;-52
2021/04/28 07:46:24;;;;;;;18.65;11.57;;;25.40;40.80;;;;;;5012015;28;20512;-52
2021/04/28 07:48:49;;;;;;;16.88;12.10;;;26.20;39.90;;;;;;5011062;28;20396;-52
2021/04/28 07:51:15;;;;;;;16.53;10.73;;;26.60;39.10;;;;;;5012367;28;20389;-52
2021/04/28 07:53:41;;;;;;;17.50;11.50;;;26.90;39.20;;;;;;5011160;28;20536;-52
2021/04/28 07:56:06;;;;;;;19.42;11.93;;;26.30;39.40;;;;;;5011676;28;20787;-52
2021/04/28 07:58:32;;;;;;;17.10;12.45;;;26.20;38.30;;;;;;5011550;28;20435;-52
2021/04/28 08:00:58;;;;;;;18.23;12.48;;;25.90;39.60;;;;;;4994504;28;20787;-51
2021/04/28 08:03:23;;;;;;;18.92;12.98;;;26.00;39.50;;;;;;5012161;28;20428;-52
2021/04/28 08:05:49;;;;;;;19.02;12.55;;;26.80;39.20;;;;;;5011375;28;20377;-51
2021/04/28 08:08:15;;;;;;;18.80;11.93;;;27.50;37.50;;;;;;5011884;28;20727;-54
2021/04/28 08:10:40;;;;;;;20.52;12.15;;;26.90;37.70;;;;;;5011028;28;20432;-52
2021/04/28 08:13:10;;;;;;;19.15;12.30;;;26.60;38.00;;;;;;5012024;28;20893;-52
2021/04/28 08:15:38;;;;;;;17.13;11.70;;;26.70;37.70;;;;;;5011021;28;20368;-55
2021/04/28 08:18:04;;;;;;;19.90;11.85;;;26.60;37.80;;;;;;5012035;28;20377;-52
2021/04/28 08:20:29;;;;;;;20.70;13.50;;;26.70;38.00;;;;;;5010983;28;20402;-52
2021/04/28 08:22:55;;;;;;;20.52;12.90;;;27.60;37.20;;;;;;5011841;28;20372;-52
2021/04/28 08:25:21;;;;;;;17.90;12.10;;;28.50;36.80;;;;;;5011885;28;20381;-52
2021/04/28 08:27:47;;;;;;;18.65;11.75;;;28.20;35.80;;;;;;5010823;28;20472;-52
2021/04/28 08:30:13;;;;;;;20.63;11.68;;;29.10;35.80;;;;;;5011038;28;20820;-52
2021/04/28 08:32:39;;;;;;;17.80;12.10;;;29.80;34.90;;;;;;5010813;28;20385;-55
2021/04/28 08:35:06;;;;;;;20.35;11.95;;;29.60;34.30;;;;;;4994034;28;21146;-55
2021/04/28 08:37:32;;;;;;;21.58;13.05;;;29.60;35.10;;;;;;4993579;28;20381;-52
2021/04/28 08:39:57;;;;;;;19.23;12.55;;;29.70;33.90;;;;;;5011318;28;20411;-52
2021/04/28 08:42:23;;;;;;;17.65;11.50;;;29.60;34.60;;;;;;5011546;28;20393;-52
2021/04/28 08:44:49;;;;;;;19.75;12.98;;;30.10;34.10;;;;;;5010782;28;20488;-52
2021/04/28 08:47:15;;;;;;;20.92;12.80;;;29.30;33.70;;;;;;5011876;28;20381;-53
2021/04/28 08:49:41;;;;;;;20.57;13.67;;;29.60;33.80;;;;;;5010210;28;20411;-52
2021/04/28 08:52:07;;;;;;;19.52;12.50;;;30.10;33.00;;;;;;5011464;28;20392;-53
2021/04/28 08:54:36;;;;;;;24.08;12.70;;;30.10;33.70;;;;;;5009254;28;20385;-53
2021/04/28 08:57:02;;;;;;;17.80;12.63;;;30.90;33.20;;;;;;5010709;28;20926;-52
2021/04/28 08:59:27;;;;;;;19.75;11.80;;;32.40;31.30;;;;;;5010339;28;20393;-63
2021/04/28 09:01:58;;;;;;;20.00;13.50;;;32.20;31.50;;;;;;5010829;28;20848;-51
2021/04/28 09:04:24;;;;;;;20.60;13.57;;;31.50;31.40;;;;;;5011408;28;20400;-50
2021/04/28 09:06:51;;;;;;;20.50;13.40;;;31.60;31.00;;;;;;5010213;28;20392;-50
2021/04/28 09:09:19;;;;;;;21.52;13.20;;;30.50;31.70;;;;;;5010511;28;20749;-53
2021/04/28 09:11:53;;;;;;;19.98;13.20;;;30.70;32.10;;;;;;5010298;28;20412;-52
2021/04/28 09:14:21;;;;;;;21.35;13.43;;;32.30;31.00;;;;;;5011259;28;20381;-54
2021/04/28 09:17:04;;;;;;;20.13;13.30;;;33.40;29.70;;;;;;5010583;28;20393;-53
2021/04/28 09:19:35;;;;;;;20.15;13.23;;;34.30;29.20;;;;;;5010215;28;20392;-63
2021/04/28 09:22:04;;;;;;;19.30;13.90;;;34.60;28.80;;;;;;4993169;28;20744;-53
2021/04/28 09:24:35;;;;;;;19.25;12.70;;;34.40;28.50;;;;;;5010556;28;20387;-63
2021/04/28 09:27:02;;;;;;;22.40;12.57;;;33.60;28.90;;;;;;5010252;28;20385;-53
2021/04/28 09:29:33;;;;;;;20.55;13.95;;;32.80;29.50;;;;;;5010020;28;20492;-54
2021/04/28 09:32:00;;;;;;;19.85;14.30;;;33.40;28.10;;;;;;5010618;28;20385;-55
2021/04/28 09:34:35;;;;;;;19.95;13.05;;;33.80;27.70;;;;;;5010441;28;20737;-55
2021/04/28 09:37:02;;;;;;;20.55;13.80;;;34.50;27.50;;;;;;5010249;28;20389;-53
2021/04/28 09:39:28;;;;;;;23.43;14.20;;;35.30;26.70;;;;;;4992250;28;20407;-63
2021/04/28 09:41:56;;;;;;;19.90;13.57;;;35.00;26.50;;;;;;4992127;28;20420;-53
2021/04/28 09:44:33;;;;;;;20.42;12.07;;;33.40;27.30;;;;;;4992699;28;20749;-52
2021/04/28 09:47:21;;;;;;;19.00;11.75;;;31.40;28.10;;;;;;5009971;28;20416;-53
2021/04/28 09:50:04;;;;;;;19.83;11.60;;;29.80;28.60;;;;;;5009536;28;20498;-52
2021/04/28 09:52:29;;;;;;;18.35;11.55;;;29.90;29.30;;;;;;5010055;28;20380;-62
2021/04/28 09:55:06;;;;;;;17.17;10.95;;;30.40;28.50;;;;;;4992135;28;20393;-53
2021/04/28 09:57:46;;;;;;;18.05;10.23;;;30.60;28.50;;;;;;5009471;28;20466;-55
2021/04/28 10:00:16;;;;;;;21.33;11.13;;;30.10;28.30;;;;;;5010069;28;20389;-56
2021/04/28 10:02:42;;;;;;;17.80;11.60;;;30.30;28.40;;;;;;5009173;28;20396;-53
2021/04/28 10:05:21;;;;;;;19.40;11.40;;;31.40;27.80;;;;;;4992091;28;20392;-54
2021/04/28 10:07:48;;;;;;;16.42;10.40;;;31.90;27.20;;;;;;4991391;28;20859;-52
2021/04/28 10:10:16;;;;;;;17.37;10.43;;;31.60;27.00;;;;;;4991764;28;20460;-53
2021/04/28 10:12:42;;;;;;;15.80;9.93;;;31.60;26.40;;;;;;5007639;28;20400;-51
2021/04/28 10:15:08;;;;;;;14.93;9.68;;;31.90;26.30;;;;;;5009460;28;20717;-50
2021/04/28 10:17:35;;;;;;;16.30;9.33;;;31.70;25.80;;;;;;4991271;28;20388;-53
2021/04/28 10:20:03;;;;;;;14.70;9.00;;;31.40;26.00;;;;;;5009373;28;20387;-52
2021/04/28 10:22:31;;;;;;;15.80;9.13;;;30.30;26.30;;;;;;5008047;28;21335;-61
2021/04/28 10:24:57;;;;;;;13.87;8.33;;;30.70;26.40;;;;;;5008823;28;20863;-52
2021/04/28 10:27:24;;;;;;;18.98;9.20;;;31.40;25.00;;;;;;5009755;28;20496;-52
2021/04/28 10:29:52;;;;;;;12.70;7.50;;;31.50;24.20;;;;;;5008604;28;20499;-52
2021/04/28 10:32:19;;;;;;;10.73;6.50;;;31.70;23.20;;;;;;5009800;28;20388;-54
2021/04/28 10:34:49;;;;;;;10.10;6.35;;;31.00;22.70;;;;;;5008788;28;20460;-52
2021/04/28 10:37:18;;;;;;;11.55;6.97;;;30.40;23.10;;;;;;5009482;28;20396;-52
2021/04/28 10:39:47;;;;;;;12.15;7.30;;;29.70;24.10;;;;;;5008170;28;20412;-52
2021/04/28 10:42:24;;;;;;;13.18;7.40;;;28.40;25.70;;;;;;5009921;28;20381;-51
2021/04/28 10:44:50;;;;;;;13.40;7.30;;;27.50;26.10;;;;;;5008175;28;20516;-51
2021/04/28 10:47:27;;;;;;;12.02;7.70;;;26.80;26.20;;;;;;5009426;28;20393;-52
2021/04/28 10:49:58;;;;;;;13.52;7.47;;;26.00;27.20;;;;;;5008295;28;20780;-52
2021/04/28 10:52:29;;;;;;;13.68;7.72;;;25.60;27.90;;;;;;4991613;28;20492;-51
2021/04/28 10:54:55;;;;;;;13.07;7.57;;;26.20;28.30;;;;;;4994574;28;20403;-52
2021/04/28 10:57:41;;;;;;;14.73;8.38;;;26.40;28.00;;;;;;5013107;28;20377;-52
2021/04/28 11:00:18;;;;;;;15.95;8.25;;;27.10;27.10;;;;;;5013036;28;20838;-52
2021/04/28 11:02:44;;;;;;;14.85;8.30;;;27.10;27.40;;;;;;5012254;28;20392;-52
2021/04/28 11:05:27;;;;;;;13.97;8.53;;;26.90;27.00;;;;;;5013520;28;20410;-51
2021/04/28 11:07:58;;;;;;;14.25;8.32;;;26.80;26.90;;;;;;5012509;28;20388;-52
2021/04/28 11:10:32;;;;;;;12.57;7.97;;;26.30;27.90;;;;;;4994633;28;20799;-51
2021/04/28 11:13:20;;;;;;;12.50;7.68;;;26.30;27.50;;;;;;5012985;28;20435;-51
2021/04/28 11:16:01;;;;;;;15.50;8.75;;;26.40;28.00;;;;;;5012131;28;20405;-52
2021/04/28 11:18:35;;;;;;;16.20;8.27;;;26.00;28.20;;;;;;4995274;28;20390;-51
2021/04/28 11:21:16;;;;;;;14.50;7.85;;;26.00;28.00;;;;;;5012808;28;20479;-52
2021/04/28 11:24:10;;;;;;;13.83;8.57;;;25.90;28.40;;;;;;5012108;28;20434;-51
2021/04/28 11:26:46;;;;;;;12.90;8.20;;;25.60;28.70;;;;;;5011850;28;20380;-52
2021/04/28 11:29:12;;;;;;;13.20;7.90;;;26.00;28.40;;;;;;4994958;28;20447;-51
2021/04/28 11:31:44;;;;;;;13.45;7.80;;;26.30;29.00;;;;;;5011826;28;20381;-51
2021/04/28 11:34:26;;;;;;;13.95;7.93;;;26.50;28.80;;;;;;5001224;28;20422;-52
2021/04/28 11:37:00;;;;;;;15.57;8.50;;;26.40;28.90;;;;;;4995473;28;20405;-51
2021/04/28 11:39:46;;;;;;;15.07;8.95;;;25.80;28.70;;;;;;5007498;28;20404;-51
2021/04/28 11:42:14;;;;;;;19.15;9.18;;;25.80;28.80;;;;;;5012238;28;20423;-51
2021/04/28 11:44:52;;;;;;;17.48;8.88;;;26.20;29.20;;;;;;5011752;28;20452;-51
2021/04/28 11:47:20;;;;;;;14.05;8.10;;;26.60;29.20;;;;;;5012414;28;20459;-51
2021/04/28 11:49:48;;;;;;;16.00;8.60;;;26.90;29.20;;;;;;5011676;28;20486;-52
2021/04/28 11:52:18;;;;;;;14.45;9.02;;;26.70;28.80;;;;;;4994682;28;20401;-51
2021/04/28 11:54:45;;;;;;;16.55;9.27;;;26.40;29.20;;;;;;5011769;28;20385;-51
2021/04/28 11:57:11;;;;;;;16.08;8.85;;;26.10;29.40;;;;;;4994657;28;20937;-51
2021/04/28 11:59:38;;;;;;;16.08;9.00;;;25.60;29.70;;;;;;5011551;28;20870;-51
2021/04/28 12:02:09;;;;;;;15.77;9.70;;;25.60;30.30;;;;;;5012199;28;20459;-54
2021/04/28 12:04:50;;;;;;;24.00;10.93;;;25.70;29.90;;;;;;5010929;28;20420;-53
2021/04/28 12:07:17;;;;;;;16.95;10.18;;;25.70;30.10;;;;;;4994113;28;20397;-51
2021/04/28 12:09:50;;;;;;;19.42;10.40;;;25.30;30.00;;;;;;5010686;28;20428;-52
2021/04/28 12:12:25;;;;;;;16.23;9.45;;;25.20;30.00;;;;;;5011990;28;20392;-51
2021/04/28 12:14:54;;;;;;;15.50;9.27;;;25.10;30.00;;;;;;5011057;28;20393;-51
2021/04/28 12:17:25;;;;;;;17.10;9.20;;;25.20;30.00;;;;;;5011609;28;20439;-51
2021/04/28 12:19:56;;;;;;;15.52;9.18;;;25.50;29.70;;;;;;5010592;28;21026;-51
2021/04/28 12:22:33;;;;;;;17.00;10.23;;;25.70;30.20;;;;;;5011859;28;20385;-51
2021/04/28 12:25:03;;;;;;;16.48;10.07;;;25.50;29.80;;;;;;5011460;28;20431;-52
2021/04/28 12:27:33;;;;;;;17.38;10.35;;;25.20;29.70;;;;;;5011590;28;20468;-51
2021/04/28 12:30:04;;;;;;;17.27;10.25;;;25.00;29.80;;;;;;5011070;28;20413;-51
2021/04/28 12:32:41;;;;;;;17.73;9.32;;;25.00;29.70;;;;;;5010854;28;20902;-51
2021/04/28 12:35:18;;;;;;;14.93;8.40;;;25.00;30.00;;;;;;5011237;28;20374;-51
2021/04/28 12:37:59;;;;;;;15.25;9.40;;;25.00;30.20;;;;;;5010542;28;20417;-51
2021/04/28 12:40:55;;;;;;;14.15;9.00;;;25.00;29.70;;;;;;5011206;28;20404;-51